Beiseker, Canada
Current Conditions -  °F | °C
As of 8:00 AM on Sunday 21 Dec 2014 (Local Time) from CYYC Reporting Station
Broken Clouds Broken Clouds  
Wind Chill: 32°   Ceiling: 21000
Heat Index: 41°   Visibility: 20mi
Dew Point: 21°   Wind: 20mph
Humidity: 45%   Direction: 280°W
Pressure: 29.18"   Gusts: 28mph
Location:  51.38°N, 113.53°W
Report Text: CYYC 211500Z 28017G24KT 20SM FEW130 BKN210 05/M06 A2918 RMK AC1CI5 SLP917 DENSITY ALT 4100FT
Loading
Personal Weather Stations






























Interactive Weather Map New forecast layout! Learn more

10-Day Weather Forecast

Advertisements
Track Severe Weather on mobile